1967 Severe Tropical Cyclone AGNES:DINAH (1967022S12165)


IBTrACS version v04r00. Visit IBTrACS website for data access.
Please direct all questions to the IBTrACS Q and A forum

Storm track - Intensity - Wind Radii - Intensity Data - Source Data - All data

Summary Information

Storm ID 1967022S12165
Start Jan 22 08Z
Landfall Jan 29 08Z, Feb 2 09Z
Max Intensity 105 kt (Jan 28 12Z), 945 mb (Jan 28 12Z)
End Feb 3 00Z
ATCF IDs ,SH161967
Track status Best track data.

Storm track plot

Map of storm track

Intensity plots

Map of storm track

Radial wind information

No radial wind information for this storm


Position and Intensity Table

BASIN ISO_TIME_________ NATURE LAT LON WMO PRES USA WIND BOM PRES DS824 WIND TD9636 WIND NEUMANN WIND NEUMANN PRES
degrees north degrees east mb kts mb kts kts kts mb
SP 1967-01-22 08:00:00 NR -12.00 165.00 5
SP 09:00:00 NR -12.05 164.89 6
SP 12:00:00 TS -12.19 164.59 15 15 9
SP 15:00:00 TS -12.31 164.28 17 17 13
SP 18:00:00 TS -12.41 163.99 20 20 17
SP 20:00:00 TS -12.48 163.82 20 20 20
SP 21:00:00 TS -12.51 163.73 20 20 19
SP 23:00:00 TS -12.59 163.59 1001 20 1001 20 18
SP 1967-01-23 00:00:00 TS -12.63 163.56 20 1000 20 18 25 1001
SP 03:00:00 TS -12.74 163.29 17 1000 17 17 27 1000
SP 06:00:00 TS -12.85 162.97 15 999 15 15 30 1000
SP 08:00:00 TS -12.94 162.75 15 999 15 15 30 999
SP 09:00:00 TS -12.98 162.64 15 999 15 14 30 999
SP 11:00:00 TS -13.07 162.41 999 15 999 15 13 30 999
SP 12:00:00 TS -13.13 162.29 15 998 15 13 30 999
SP 15:00:00 TS -13.30 161.95 12 998 12 12 32 998
SP 18:00:00 TS -13.48 161.60 10 998 10 10 35 998
SP 20:00:00 TS -13.60 161.39 10 998 10 10 35 998
SP 21:00:00 TS -13.66 161.28 10 998 10 10 35 998
SP 23:00:00 TS -13.77 161.06 998 10 998 10 10 35 998
SP 1967-01-24 00:00:00 TS -13.83 160.95 10 997 10 10 35 998
SP 03:00:00 TS -14.00 160.58 10 997 10 10 35 997
SP 06:00:00 TS -14.18 160.21 10 996 10 10 35 996
SP 08:00:00 TS -14.31 159.97 10 995 10 10 36 995
SP 09:00:00 TS -14.37 159.85 10 995 10 10 37 995
SP 11:00:00 TS -14.51 159.62 995 10 995 10 10 39 995
SP 12:00:00 TS -14.58 159.50 10 994 10 10 40 995
SP 15:00:00 TS -14.80 159.13 10 993 10 10 40 994
SP 18:00:00 TS -15.04 158.76 10 992 10 10 40 993
SP 20:00:00 TS -15.20 158.52 11 992 11 10 41 992
SP 21:00:00 TS -15.29 158.40 12 991 12 11 42 992
SP 23:00:00 TS -15.45 158.17 991 14 991 14 13 44 991
SP 1967-01-25 00:00:00 TS -15.53 158.06 15 990 15 14 45 991
SP 03:00:00 TS -15.74 157.74 20 988 20 18 47 989
SP 06:00:00 TS -15.94 157.44 25 986 25 22 50 987
SP 08:00:00 TS -16.08 157.24 25 985 25 25 51 985
SP 09:00:00 TS -16.16 157.14 25 985 25 24 52 985
SP 11:00:00 TS -16.31 156.95 984 25 984 25 22 54 984
SP 12:00:00 TS -16.38 156.85 25 983 25 21 55 984
SP 15:00:00 TS -16.59 156.58 20 981 20 19 57 982
SP 18:00:00 TS -16.80 156.31 15 979 15 16 60 980
SP 20:00:00 TS -16.96 156.12 16 978 16 15 61 978
SP 21:00:00 TS -17.04 156.03 17 977 17 16 62 978
SP 23:00:00 TS -17.20 155.84 976 19 976 19 18 64 976
SP 1967-01-26 00:00:00 TS -17.29 155.75 20 975 20 19 65 976
SP 03:00:00 TS -17.51 155.49 25 974 25 23 67 975
SP 06:00:00 TS -17.74 155.24 30 973 30 27 70 974
SP 08:00:00 TS -17.91 155.07 30 973 30 30 70 973
SP 09:00:00 TS -17.99 154.99 30 972 30 30 70 973
SP 11:00:00 TS -18.15 154.83 972 30 972 30 31 70 972
SP 12:00:00 TS -18.23 154.75 30 971 30 31 70 972
SP 15:00:00 TS -18.44 154.54 32 970 32 32 72 971
SP 18:00:00 TS -18.65 154.35 35 969 35 34 75 970
SP 20:00:00 TS -18.81 154.23 36 969 36 35 75 969
SP 21:00:00 TS -18.89 154.17 37 968 37 35 75 969
SP 23:00:00 TS -19.05 154.06 968 39 968 39 37 75 968
SP 1967-01-27 00:00:00 TS -19.13 154.00 40 967 40 38 75 968
SP 03:00:00 TS -19.36 153.80 42 966 42 40 77 966
SP 06:00:00 TS -19.59 153.62 45 964 45 43 80 965
SP 08:00:00 TS -19.76 153.51 45 963 45 45 81 963
SP 09:00:00 TS -19.85 153.46 45 963 45 45 82 963
SP 11:00:00 TS -20.03 153.37 962 45 962 45 46 84 962
SP 12:00:00 TS -20.13 153.33 45 961 45 46 85 962
SP 15:00:00 TS -20.41 153.22 47 959 47 47 87 960
SP 18:00:00 TS -20.69 153.13 50 957 50 49 90 958
SP 20:00:00 TS -20.88 153.08 51 956 51 50 91 956
SP 21:00:00 TS -20.97 153.05 52 955 52 51 92 956
SP 23:00:00 TS -21.15 153.00 954 54 954 54 53 94 954
SP 1967-01-28 00:00:00 TS -21.23 152.98 55 953 55 54 95 954
SP 03:00:00 TS -21.44 152.90 57 951 57 58 97 952
SP 06:00:00 TS -21.65 152.84 60 949 60 62 100 950
SP 08:00:00 TS -21.80 152.81 63 948 63 65 101 948
SP 09:00:00 TS -21.88 152.80 65 947 65 66 102 948
SP 11:00:00 TS -22.05 152.78 946 68 946 68 70 104 946
SP 12:00:00 TS -22.14 152.78 70 945 70 71 105 946
SP 15:00:00 TS -22.41 152.76 75 945 75 76 105 945
SP 18:00:00 TS -22.73 152.77 80 945 80 81 105 945
SP 20:00:00 TS -22.97 152.79 81 945 81 85 105 945
SP 21:00:00 TS -23.10 152.81 82 945 82 84 105 945
SP 23:00:00 TS -23.37 152.85 945 84 945 84 83 105 945
SP 1967-01-29 00:00:00 TS -23.52 152.88 85 945 85 83 105 945
SP 03:00:00 TS -23.98 152.98 82 945 82 82 105 945
SP 06:00:00 TS -24.47 153.13 80 945 80 80 105 945
SP 07:00:00 TS -24.63 153.19 945 80 945 80 80 105 945
SP 08:00:00 TS -24.79 153.25 81 945 81 80 105 945
SP 09:00:00 TS -24.94 153.31 82 945 82 80 105 945
SP 11:00:00 TS -25.25 153.48 946 84 946 84 82 105 945
SP 12:00:00 TS -25.41 153.58 85 946 85 83 105 946
SP 15:00:00 TS -25.88 153.96 87 948 87 85 102 948
SP 17:00:00 TS -26.19 154.26 950 89 950 89 87 100 949
SP 18:00:00 TS -26.35 154.42 90 950 90 88 100 950
SP 20:00:00 TS -26.66 154.71 86 952 86 90 98 951
SP 21:00:00 TS -26.82 154.87 85 952 85 87 97 952
SP 23:00:00 TS -27.14 155.21 954 81 954 81 82 95 953
SP 1967-01-30 00:00:00 TS -27.31 155.39 80 954 80 80 95 954
SP 03:00:00 TS -27.86 156.03 72 956 72 72 92 956
SP 06:00:00 TS -28.45 156.70 65 958 65 65 90 958
SP 08:00:00 TS -28.86 157.13 59 960 59 60 88 959
SP 09:00:00 TS -29.06 157.34 57 960 57 57 87 960
SP 11:00:00 TS -29.47 157.72 962 52 962 52 53 85 961
SP 12:00:00 TS -29.68 157.90 50 962 50 51 85 962
SP 14:00:00 TS -30.07 158.22 964 46 964 46 47 83 963
SP 15:00:00 TS -30.25 158.36 45 964 45 45 82 964
SP 18:00:00 TS -30.76 158.68 40 966 40 39 80 966
SP 20:00:00 TS -31.06 158.83 38 968 38 35 78 967
SP 21:00:00 TS -31.21 158.89 37 968 37 35 77 968
SP 23:00:00 TS -31.50 159.00 970 35 970 35 36 75 969
SP 1967-01-31 00:00:00 TS -31.66 159.07 35 970 35 36 75 970
SP 03:00:00 TS -32.13 159.30 37 972 37 37 72 972
SP 06:00:00 TS -32.61 159.55 40 974 40 39 70 974
SP 08:00:00 TS -32.95 159.73 40 976 40 40 68 975
SP 09:00:00 TS -33.13 159.82 40 976 40 37 67 976
SP 11:00:00 TS -33.47 160.02 978 40 978 40 33 65 977
SP 12:00:00 TS -33.64 160.12 40 978 40 31 65 978
SP 15:00:00 TS -34.10 160.47 40 980 40 25 62 980
SP 18:00:00 TS -34.49 160.90 40 982 40 19 60 982
SP 20:00:00 TS -34.74 161.21 38 984 38 15 58 983
SP 21:00:00 TS -34.85 161.40 37 984 37 57 984
SP 23:00:00 TS -35.02 161.83 986 35 986 35 55 985
SP 1967-02-01 00:00:00 TS -35.06 162.10 35 35 55 986
SP 03:00:00 TS -35.08 163.01 35 35 55
SP 06:00:00 TS -34.97 163.97 35 35 55
SP 08:00:00 TS -34.89 164.55 35 35 53
SP 09:00:00 TS -34.83 164.80 35 35 52
SP 12:00:00 TS -34.56 165.46 35 35 50
SP 15:00:00 TS -34.19 165.98 32 32 47
SP 18:00:00 TS -33.93 166.63 30 30 45
SP 20:00:00 TS -33.90 167.23 30 30 45
SP 21:00:00 TS -33.95 167.62 30 30 45
SP 1967-02-02 00:00:00 TS -34.34 169.15 30 30 45
SP 03:00:00 TS -35.07 171.35 27 27 45
SP 06:00:00 TS -36.08 173.68 25 25 45
SP 08:00:00 TS -36.83 174.98 23 23 41
SP 09:00:00 TS -37.24 175.57 22 22 40
SP 12:00:00 TS -38.46 177.09 20 20 35
SP 15:00:00 TS -39.57 178.37 17 17 35
SP 18:00:00 TS -40.57 179.44 15 15 35
SP 20:00:00 TS -41.00 179.82 35
SP 21:00:00 TS -40.99 179.82 35
SP 1967-02-03 00:00:00 TS -42.50 181.00 35

Source Information

Agency Information
USA bsh161967.txt
TOKYO
CMA
HKO
NEWDELHI
REUNION
BOM IDCKMSTM0S.csv:Line=4690:DINAH
NADI
WELLINGTON
DS824 s_hem.dat:1024:16P
TD9636 cons_worldwide_trop_cyclone_18710101-19891231-006:Line=7651
TD9635
NEUMANN tracks.sh:Storm=186:DINAH/AGNES:BSH1667:BM357
MLC

All available IBTrACS Data

SEASON BASIN SUBBASIN ISO_TIME_________ NATURE LAT LON WMO PRES WMO AGENCY DIST2LAND LANDFALL IFLAG USA AGENCY USA ATCF_ID USA LAT USA LON USA WIND USA SSHS BOM LAT BOM LON BOM PRES BOM PRES_METHOD DS824 LAT DS824 LON DS824 STAGE DS824 WIND TD9636 LAT TD9636 LON TD9636 STAGE TD9636 WIND NEUMANN LAT NEUMANN LON NEUMANN CLASS NEUMANN WIND NEUMANN PRES STORM SPEED STORM DIR
Year degrees north degrees east mb km km degrees north degrees east kts 1 degrees north degrees east mb degrees north degrees east kts degrees north degrees east kts degrees north degrees east kts mb kts degrees
1967 SP MM 1967-01-22 08:00:00 NR -12.00 165.00 323 313 __________O___ -1 -12.00 165.00 1 5 7 246
1967 SP MM 09:00:00 NR -12.05 164.89 313 295 __________P___ -1 -12.05 164.89 1 6 7 245
1967 SP MM 12:00:00 TS -12.19 164.59 295 275 O________OP___ jtwc_sh SH161967 -12.20 164.60 15 -1 -12.20 164.60 TC 15 -12.18 164.58 1 9 7 247
1967 SP MM 15:00:00 TS -12.31 164.28 275 257 P________PP___ SH161967 -12.30 164.29 17 -1 -12.30 164.29 TC 17 -12.31 164.27 1 13 6 249
1967 SP MM 18:00:00 TS -12.41 163.99 257 250 O________OP___ jtwc_sh SH161967 -12.40 164.00 20 -1 -12.40 164.00 TC 20 -12.43 163.98 1 17 6 249
1967 SP MM 20:00:00 TS -12.48 163.82 250 243 P________PO___ SH161967 -12.47 163.83 20 -1 -12.47 163.83 TC 20 -12.50 163.80 1 20 5 248
1967 SP MM 21:00:00 TS -12.51 163.73 243 243 P________PP___ SH161967 -12.50 163.74 20 -1 -12.50 163.74 TC 20 -12.53 163.71 1 19 5 244
1967 SP MM 23:00:00 TS -12.59 163.59 1001 bom 246 246 P_____O__PP___ SH161967 -12.57 163.58 20 -1 -12.70 163.80 1001 -12.57 163.58 TC 20 -12.59 163.55 1 18 4 235
1967 SP MM 1967-01-23 00:00:00 TS -12.63 163.56 246 239 O_____P__OP_O_ jtwc_sh SH161967 -12.60 163.50 20 -1 -12.73 163.66 1000 -12.60 163.50 TC 20 -12.62 163.47 1 18 -12.70 164.00 TC 25 1001 5 242
1967 SP MM 03:00:00 TS -12.74 163.29 239 236 P_____P__PP_P_ SH161967 -12.69 163.26 17 -1 -12.81 163.23 1000 -12.69 163.26 TC 17 -12.72 163.23 1 17 -12.80 163.61 TC 27 1000 6 249
1967 SP MM 06:00:00 TS -12.85 162.97 247 241 O_____P__OP_O_ jtwc_sh SH161967 -12.80 163.00 15 -1 -12.90 162.82 999 -12.80 163.00 TC 15 -12.82 162.98 1 15 -12.90 163.20 TC 30 1000 7 249
1967 SP MM 08:00:00 TS -12.94 162.75 241 239 P_____P__PO_P_ SH161967 -12.89 162.82 15 -1 -12.97 162.56 999 -12.89 162.82 TC 15 -12.90 162.80 1 15 -12.96 162.92 TC 30 999 7 249
1967 SP MM 09:00:00 TS -12.98 162.64 248 247 P_____P__PP_P_ SH161967 -12.93 162.72 15 -1 -13.01 162.44 999 -12.93 162.72 TC 15 -12.95 162.70 1 14 -12.99 162.78 TC 30 999 7 248
1967 SP MM 11:00:00 TS -13.07 162.41 999 bom 257 257 P_____O__PP_P_ SH161967 -13.04 162.51 15 -1 -13.10 162.20 999 -13.04 162.51 TC 15 -13.05 162.48 1 13 -13.06 162.52 TC 30 999 7 247
1967 SP MM 12:00:00 TS -13.13 162.29 257 257 O_____P__OP_O_ jtwc_sh SH161967 -13.10 162.40 15 -1 -13.15 162.09 998 -13.10 162.40 TC 15 -13.11 162.37 1 13 -13.10 162.40 TC 30 999 8 243
1967 SP MM 15:00:00 TS -13.30 161.95 279 279 P_____P__PP_P_ SH161967 -13.30 162.01 12 -1 -13.31 161.78 998 -13.30 162.01 TC 12 -13.29 162.02 1 12 -13.23 162.08 TC 32 998 8 242
1967 SP MM 18:00:00 TS -13.48 161.60 303 303 O_____P__OP_O_ jtwc_sh SH161967 -13.50 161.60 10 -1 -13.49 161.49 998 -13.50 161.60 TC 10 -13.48 161.65 1 10 -13.40 161.80 TC 35 998 7 241
1967 SP MM 20:00:00 TS -13.60 161.39 316 316 P_____P__PO_P_ SH161967 -13.60 161.36 10 -1 -13.61 161.30 998 -13.60 161.36 TC 10 -13.60 161.40 1 10 -13.53 161.61 TC 35 998 7 241
1967 SP MM 21:00:00 TS -13.66 161.28 329 329 P_____P__PP_P_ SH161967 -13.65 161.25 10 -1 -13.68 161.20 998 -13.65 161.25 TC 10 -13.66 161.28 1 10 -13.60 161.51 TC 35 998 7 241
1967 SP MM 23:00:00 TS -13.77 161.06 998 bom 344 344 P_____O__PP_P_ SH161967 -13.75 161.02 10 -1 -13.80 161.00 998 -13.75 161.02 TC 10 -13.77 161.03 1 10 -13.74 161.31 TC 35 998 7 242
1967 SP MM 1967-01-24 00:00:00 TS -13.83 160.95 349 349 O_____P__OP_O_ jtwc_sh SH161967 -13.80 160.90 10 -1 -13.85 160.89 997 -13.80 160.90 TC 10 -13.82 160.90 1 10 -13.80 161.20 TC 35 998 8 244
1967 SP MM 03:00:00 TS -14.00 160.58 381 381 P_____P__PP_P_ SH161967 -13.99 160.50 10 -1 -14.02 160.55 997 -13.99 160.50 TC 10 -13.99 160.52 1 10 -13.95 160.86 TC 35 997 8 244
1967 SP MM 06:00:00 TS -14.18 160.21 418 418 O_____P__OP_O_ jtwc_sh SH161967 -14.20 160.10 10 -1 -14.18 160.20 996 -14.20 160.10 TC 10 -14.17 160.15 1 10 -14.10 160.50 TC 35 996 8 243
1967 SP EA 08:00:00 TS -14.31 159.97 437 437 P_____P__PO_P_ SH161967 -14.33 159.86 10 -1 -14.30 159.96 995 -14.33 159.86 TC 10 -14.30 159.90 1 10 -14.22 160.27 TC 36 995 8 241
1967 SP EA 09:00:00 TS -14.37 159.85 452 452 P_____P__PP_P_ SH161967 -14.40 159.74 10 -1 -14.37 159.84 995 -14.40 159.74 TC 10 -14.37 159.78 1 10 -14.28 160.16 TC 37 995 8 240
1967 SP EA 11:00:00 TS -14.51 159.62 995 bom 478 478 P_____O__PP_P_ SH161967 -14.53 159.51 10 -1 -14.50 159.60 995 -14.53 159.51 TC 10 -14.51 159.54 1 10 -14.42 159.92 TC 39 995 8 239
1967 SP EA 12:00:00 TS -14.58 159.50 493 493 O_____P__OP_O_ jtwc_sh SH161967 -14.60 159.40 10 -1 -14.58 159.47 994 -14.60 159.40 TC 10 -14.58 159.42 1 10 -14.50 159.80 TC 40 995 8 238
1967 SP EA 15:00:00 TS -14.80 159.13 535 535 P_____P__PP_P_ SH161967 -14.79 159.05 10 -1 -14.82 159.09 993 -14.79 159.05 TC 10 -14.81 159.07 1 10 -14.74 159.40 TC 40 994 9 237
1967 SP EA 18:00:00 TS -15.04 158.76 571 571 O_____P__OP_O_ jtwc_sh SH161967 -15.00 158.70 10 -1 -15.08 158.71 992 -15.00 158.70 TC 10 -15.04 158.72 1 10 -15.00 159.00 TC 40 993 9 236
1967 SP EA 20:00:00 TS -15.20 158.52 608 608 P_____P__PO_P_ SH161967 -15.16 158.46 11 -1 -15.25 158.46 992 -15.16 158.46 TC 11 -15.20 158.50 1 10 -15.17 158.75 TC 41 992 9 234
1967 SP EA 21:00:00 TS -15.29 158.40 624 624 P_____P__PP_P_ SH161967 -15.25 158.34 12 -1 -15.34 158.34 991 -15.25 158.34 TC 12 -15.27 158.39 1 11 -15.26 158.63 TC 42 992 8 234
1967 SP EA 23:00:00 TS -15.45 158.17 991 bom 654 654 P_____O__PP_P_ SH161967 -15.42 158.11 14 -1 -15.50 158.10 991 -15.42 158.11 TC 14 -15.42 158.16 1 13 -15.42 158.41 TC 44 991 8 234
1967 SP EA 1967-01-25 00:00:00 TS -15.53 158.06 660 660 O_____P__OP_O_ jtwc_sh SH161967 -15.50 158.00 15 -1 -15.57 157.99 990 -15.50 158.00 TC 15 -15.50 158.05 1 14 -15.50 158.30 TC 45 991 8 235
1967 SP EA 03:00:00 TS -15.74 157.74 698 698 P_____P__PP_P_ SH161967 -15.70 157.69 20 -1 -15.78 157.67 988 -15.70 157.69 TC 20 -15.72 157.72 1 18 -15.71 157.99 TC 47 989 7 235
1967 SP EA 06:00:00 TS -15.94 157.44 730 730 O_____P__OP_O_ jtwc_sh SH161967 -15.90 157.40 25 -1 -15.97 157.37 986 -15.90 157.40 TC 25 -15.95 157.40 1 22 -15.90 157.70 TC 50 987 7 234
1967 SP EA 08:00:00 TS -16.08 157.24 759 759 P_____P__PO_P_ SH161967 -16.06 157.19 25 -1 -16.10 157.18 985 -16.06 157.19 TC 25 -16.10 157.20 1 25 -16.03 157.50 TC 51 985 7 233
1967 SP EA 09:00:00 TS -16.16 157.14 774 774 P_____P__PP_P_ SH161967 -16.15 157.09 25 -1 -16.17 157.09 985 -16.15 157.09 TC 25 -16.17 157.10 1 24 -16.10 157.40 TC 52 985 7 231
1967 SP EA 11:00:00 TS -16.31 156.95 984 bom 792 792 P_____O__PP_P_ SH161967 -16.32 156.89 25 -1 -16.30 156.90 984 -16.32 156.89 TC 25 -16.32 156.91 1 22 -16.23 157.20 TC 54 984 7 231
1967 SP EA 12:00:00 TS -16.38 156.85 802 802 O_____P__OP_O_ jtwc_sh SH161967 -16.40 156.80 25 -1 -16.37 156.80 983 -16.40 156.80 TC 25 -16.40 156.82 1 21 -16.30 157.10 TC 55 984 7 232
1967 SP EA 15:00:00 TS -16.59 156.58 836 836 P_____P__PP_P_ SH161967 -16.60 156.55 20 -1 -16.59 156.52 981 -16.60 156.55 TC 20 -16.62 156.54 1 19 -16.49 156.79 TC 57 982 7 231
1967 SP EA 18:00:00 TS -16.80 156.31 857 835 O_____P__OP_O_ jtwc_sh SH161967 -16.80 156.30 15 -1 -16.81 156.24 979 -16.80 156.30 TC 15 -16.85 156.28 1 16 -16.70 156.50 TC 60 980 7 230
1967 SP EA 20:00:00 TS -16.96 156.12 827 819 P_____P__PO_P_ SH161967 -16.96 156.10 16 -1 -16.96 156.06 978 -16.96 156.10 TC 16 -17.00 156.10 1 15 -16.86 156.33 TC 61 978 7 228
1967 SP EA 21:00:00 TS -17.04 156.03 819 796 P_____P__PP_P_ SH161967 -17.05 156.00 17 -1 -17.04 155.97 977 -17.05 156.00 TC 17 -17.07 156.00 1 16 -16.94 156.24 TC 62 978 7 228
1967 SP EA 23:00:00 TS -17.20 155.84 976 bom 789 780 P_____O__PP_P_ SH161967 -17.22 155.80 19 -1 -17.20 155.80 976 -17.22 155.80 TC 19 -17.22 155.81 1 18 -17.11 156.08 TC 64 976 7 227
1967 SP EA 1967-01-26 00:00:00 TS -17.29 155.75 780 742 O_____P__OP_O_ jtwc_sh SH161967 -17.30 155.70 20 -1 -17.28 155.71 975 -17.30 155.70 TC 20 -17.30 155.72 1 19 -17.20 156.00 TC 65 976 7 228
1967 SP EA 03:00:00 TS -17.51 155.49 742 712 P_____P__PP_P_ SH161967 -17.50 155.44 25 -1 -17.53 155.45 974 -17.50 155.44 TC 25 -17.53 155.43 1 23 -17.45 155.75 TC 67 975 7 227
1967 SP EA 06:00:00 TS -17.74 155.24 705 681 O_____P__OP_O_ jtwc_sh SH161967 -17.70 155.20 30 -1 -17.78 155.19 973 -17.70 155.20 TC 30 -17.75 155.17 1 27 -17.70 155.50 TC 70 974 7 225
1967 SP EA 08:00:00 TS -17.91 155.07 681 665 P_____P__PO_P_ SH161967 -17.86 155.03 30 -1 -17.95 155.03 973 -17.86 155.03 TC 30 -17.90 155.00 1 30 -17.87 155.33 TC 70 973 7 224
1967 SP EA 09:00:00 TS -17.99 154.99 665 643 P_____P__PP_P_ SH161967 -17.95 154.94 30 -1 -18.04 154.95 972 -17.95 154.94 TC 30 -17.97 154.92 1 30 -17.96 155.24 TC 70 973 7 223
1967 SP EA 11:00:00 TS -18.15 154.83 972 bom 635 635 P_____O__PP_P_ SH161967 -18.12 154.78 30 -1 -18.20 154.80 972 -18.12 154.78 TC 30 -18.12 154.77 1 31 -18.12 155.08 TC 70 972 7 223
1967 SP EA 12:00:00 TS -18.23 154.75 635 604 O_____P__OP_O_ jtwc_sh SH161967 -18.20 154.70 30 -1 -18.28 154.73 971 -18.20 154.70 TC 30 -18.19 154.70 1 31 -18.20 155.00 TC 70 972 6 223
1967 SP EA 15:00:00 TS -18.44 154.54 597 573 P_____P__PP_P_ SH161967 -18.40 154.48 32 -1 -18.51 154.51 970 -18.40 154.48 TC 32 -18.42 154.51 1 32 -18.40 154.79 TC 72 971 6 222
1967 SP EA 18:00:00 TS -18.65 154.35 565 542 O_____P__OP_O_ jtwc_sh SH161967 -18.60 154.30 35 0 -18.73 154.31 969 -18.60 154.30 TC 35 -18.64 154.32 1 34 -18.60 154.60 TC 75 970 6 219
1967 SP EA 20:00:00 TS -18.81 154.23 542 534 P_____P__PO_P_ SH161967 -18.76 154.20 36 0 -18.88 154.18 969 -18.76 154.20 TC 36 -18.80 154.20 2 35 -18.76 154.47 TC 75 969 6 216
1967 SP EA 21:00:00 TS -18.89 154.17 534 519 P_____P__PP_P_ SH161967 -18.84 154.15 37 0 -18.95 154.12 968 -18.84 154.15 TC 37 -18.88 154.14 2 35 -18.85 154.40 TC 75 969 6 214
1967 SP EA 23:00:00 TS -19.05 154.06 968 bom 510 503 P_____O__PP_P_ SH161967 -19.01 154.05 39 0 -19.10 154.00 968 -19.01 154.05 TC 39 -19.04 154.01 2 37 -19.02 154.27 TC 75 968 6 215
1967 SP EA 1967-01-27 00:00:00 TS -19.13 154.00 503 473 O_____P__OP_O_ jtwc_sh SH161967 -19.10 154.00 40 0 -19.17 153.93 967 -19.10 154.00 TC 40 -19.12 153.95 2 38 -19.10 154.20 TC 75 968 6 218
1967 SP EA 03:00:00 TS -19.36 153.80 464 434 P_____P__PP_P_ SH161967 -19.34 153.80 42 0 -19.38 153.74 966 -19.34 153.80 TC 42 -19.37 153.77 2 40 -19.30 153.99 TC 77 966 6 218
1967 SP EA 06:00:00 TS -19.59 153.62 434 418 O_____P__OP_O_ jtwc_sh SH161967 -19.60 153.60 45 0 -19.60 153.55 964 -19.60 153.60 TC 45 -19.62 153.60 2 43 -19.50 153.80 TC 80 965 6 214
1967 SP EA 08:00:00 TS -19.76 153.51 410 410 P_____P__PO_P_ SH161967 -19.80 153.49 45 0 -19.75 153.44 963 -19.80 153.49 TC 45 -19.80 153.50 2 45 -19.65 153.69 TC 81 963 6 210
1967 SP EA 09:00:00 TS -19.85 153.46 403 387 P_____P__PP_P_ SH161967 -19.90 153.43 45 0 -19.83 153.39 963 -19.90 153.43 TC 45 -19.89 153.45 2 45 -19.73 153.63 TC 82 963 6 207
1967 SP EA 11:00:00 TS -20.03 153.37 962 bom 387 372 P_____O__PP_P_ SH161967 -20.10 153.34 45 0 -20.00 153.30 962 -20.10 153.34 TC 45 -20.08 153.35 2 46 -19.91 153.54 TC 84 962 6 204
1967 SP EA 12:00:00 TS -20.13 153.33 372 341 O_____P__OP_O_ jtwc_sh SH161967 -20.20 153.30 45 0 -20.09 153.26 961 -20.20 153.30 TC 45 -20.17 153.30 2 46 -20.00 153.50 TC 85 962 6 201
1967 SP EA 15:00:00 TS -20.41 153.22 341 311 P_____P__PP_P_ SH161967 -20.46 153.19 47 0 -20.39 153.17 959 -20.46 153.19 TC 47 -20.45 153.17 2 47 -20.29 153.38 TC 87 960 6 198
1967 SP EA 18:00:00 TS -20.69 153.13 311 297 O_____P__OP_O_ jtwc_sh SH161967 -20.70 153.10 50 0 -20.70 153.10 957 -20.70 153.10 TC 50 -20.73 153.06 2 49 -20.60 153.30 TC 90 958 6 195
1967 SP EA 20:00:00 TS -20.88 153.08 297 290 P_____P__PO_P_ SH161967 -20.87 153.03 51 0 -20.91 153.06 956 -20.87 153.03 TC 51 -20.90 153.00 2 50 -20.81 153.26 TC 91 956 6 195
1967 SP EA 21:00:00 TS -20.97 153.05 290 275 P_____P__PP_P_ SH161967 -20.96 152.99 52 0 -21.01 153.04 955 -20.96 152.99 TC 52 -20.98 152.97 2 51 -20.91 153.25 TC 92 956 6 193
1967 SP EA 23:00:00 TS -21.15 153.00 954 bom 275 269 P_____O__PP_P_ SH161967 -21.12 152.93 54 0 -21.20 153.00 954 -21.12 152.93 TC 54 -21.13 152.92 2 53 -21.11 153.22 TC 94 954 5 195
1967 SP EA 1967-01-28 00:00:00 TS -21.23 152.98 269 249 O_____P__OP_O_ jtwc_sh SH161967 -21.20 152.90 55 0 -21.28 152.97 953 -21.20 152.90 TC 55 -21.20 152.90 2 54 -21.20 153.20 TC 95 954 5 198
1967 SP EA 03:00:00 TS -21.44 152.90 249 229 P_____P__PP_P_ SH161967 -21.40 152.83 57 0 -21.51 152.88 951 -21.40 152.83 TC 57 -21.41 152.85 2 58 -21.41 153.10 TC 97 952 4 197
1967 SP EA 06:00:00 TS -21.65 152.84 229 220 O_____P__OP_O_ jtwc_sh SH161967 -21.60 152.80 60 0 -21.72 152.79 949 -21.60 152.80 TC 60 -21.64 152.81 2 62 -21.60 153.00 TC 100 950 4 194
1967 SP EA 08:00:00 TS -21.80 152.81 220 216 P_____P__PO_P_ SH161967 -21.75 152.79 63 0 -21.87 152.75 948 -21.75 152.79 TC 63 -21.80 152.80 3 65 -21.75 152.95 TC 101 948 5 189
1967 SP EA 09:00:00 TS -21.88 152.80 216 213 P_____P__PP_P_ SH161967 -21.83 152.79 65 1 -21.94 152.73 947 -21.83 152.79 TC 65 -21.88 152.79 3 66 -21.83 152.93 TC 102 948 5 0
1967 SP EA 11:00:00 TS -22.05 152.78 946 bom 213 210 P_____O__PP_P_ SH161967 -22.01 152.80 68 1 -22.10 152.70 946 -22.01 152.80 TC 68 -22.05 152.77 3 70 -22.01 152.91 TC 104 946 5 0
1967 SP EA 12:00:00 TS -22.14 152.78 210 205 O_____P__OP_O_ jtwc_sh SH161967 -22.10 152.80 70 1 -22.18 152.69 945 -22.10 152.80 TC 70 -22.14 152.76 3 71 -22.10 152.90 TC 105 946 6 182
1967 SP EA 15:00:00 TS -22.41 152.76 205 186 P_____P__PP_P_ SH161967 -22.37 152.79 75 1 -22.42 152.67 945 -22.37 152.79 TC 75 -22.43 152.76 3 76 -22.39 152.89 TC 105 945 6 181
1967 SP EA 18:00:00 TS -22.73 152.77 186 168 O_____P__OP_O_ jtwc_sh SH161967 -22.70 152.80 80 1 -22.69 152.69 945 -22.70 152.80 TC 80 -22.76 152.77 3 81 -22.70 152.90 TC 105 945 7 176
1967 SP EA 20:00:00 TS -22.97 152.79 159 151 P_____P__PO_P_ SH161967 -22.98 152.82 81 1 -22.91 152.72 945 -22.98 152.82 TC 81 -23.00 152.80 4 85 -22.88 152.91 TC 105 945 7 174
1967 SP EA 21:00:00 TS -23.10 152.81 151 135 P_____P__PP_P_ SH161967 -23.13 152.84 82 1 -23.03 152.74 945 -23.13 152.84 TC 82 -23.13 152.81 4 84 -22.97 152.93 TC 105 945 8 173
1967 SP EA 23:00:00 TS -23.37 152.85 945 bom 135 128 P_____O__PP_P_ SH161967 -23.44 152.88 84 2 -23.30 152.80 945 -23.44 152.88 TC 84 -23.40 152.83 4 83 -23.18 152.97 TC 105 945 9 171
1967 SP EA 1967-01-29 00:00:00 TS -23.52 152.88 128 89 O_____P__OP_O_ jtwc_sh SH161967 -23.60 152.90 85 2 -23.46 152.83 945 -23.60 152.90 TC 85 -23.55 152.84 4 83 -23.30 153.00 TC 105 945 9 169
1967 SP EA 03:00:00 TS -23.98 152.98 89 44 P_____P__PP_P_ SH161967 -24.05 152.98 82 1 -23.99 152.96 945 -24.05 152.98 TC 82 -24.00 152.92 4 82 -23.77 153.13 TC 105 945 10 166
1967 SP EA 06:00:00 TS -24.47 153.13 33 22 O_____P__OP_O_ jtwc_sh SH161967 -24.50 153.10 80 1 -24.53 153.13 945 -24.50 153.10 TC 80 -24.48 153.06 4 80 -24.30 153.30 TC 105 945 10 164
1967 SP EA 07:00:00 TS -24.63 153.19 945 bom 22 0 P_____O__PP_P_ SH161967 -24.65 153.14 80 1 -24.70 153.20 945 4 -24.65 153.14 TC 80 -24.64 153.13 4 80 -24.47 153.35 TC 105 945 10 162
1967 SP EA 08:00:00 TS -24.79 153.25 0 0 P_____P__PO_P_ SH161967 -24.79 153.19 81 1 -24.85 153.26 945 -24.79 153.19 TC 81 -24.80 153.20 4 80 -24.64 153.40 TC 105 945 10 160
1967 SP EA 09:00:00 TS -24.94 153.31 0 0 P_____P__PP_P_ SH161967 -24.94 153.25 82 1 -25.01 153.33 945 -24.94 153.25 TC 82 -24.95 153.28 4 80 -24.81 153.46 TC 105 945 10 156
1967 SP EA 11:00:00 TS -25.25 153.48 946 bom 22 22 P_____O__PP_P_ SH161967 -25.24 153.40 84 2 -25.30 153.50 946 -25.24 153.40 TC 84 -25.26 153.46 4 82 -25.14 153.61 TC 105 945 11 153
1967 SP EA 12:00:00 TS -25.41 153.58 37 37 O_____P__OP_O_ jtwc_sh SH161967 -25.40 153.50 85 2 -25.45 153.61 946 -25.40 153.50 TC 85 -25.41 153.56 4 83 -25.30 153.70 TC 105 946 12 145
1967 SP EA 15:00:00 TS -25.88 153.96 89 89 P_____P__PP_P_ SH161967 -25.89 153.90 87 2 -25.90 154.01 948 -25.89 153.90 TC 87 -25.88 153.92 4 85 -25.76 154.07 TC 102 948 12 142
1967 SP EA 17:00:00 TS -26.19 154.26 950 bom 119 119 P_____O__PP_P_ SH161967 -26.23 154.23 89 2 -26.20 154.30 950 -26.23 154.23 TC 89 -26.20 154.21 4 87 -26.05 154.36 TC 100 949 12 139
1967 SP EA 18:00:00 TS -26.35 154.42 129 129 O_____P__OP_O_ jtwc_sh SH161967 -26.40 154.40 90 2 -26.34 154.43 950 -26.40 154.40 TC 90 -26.36 154.37 4 88 -26.20 154.50 TC 100 950 12 139
1967 SP EA 20:00:00 TS -26.66 154.71 155 155 P_____P__PO_P_ SH161967 -26.73 154.74 86 2 -26.63 154.68 952 -26.73 154.74 TC 86 -26.70 154.70 4 90 -26.48 154.74 TC 98 951 12 139
1967 SP EA 21:00:00 TS -26.82 154.87 171 169 P_____P__PP_P_ SH161967 -26.89 154.92 85 2 -26.78 154.81 952 -26.89 154.92 TC 85 -26.87 154.88 4 87 -26.63 154.86 TC 97 952 13 137
1967 SP EA 23:00:00 TS -27.14 155.21 954 bom 192 190 P_____O__PP_P_ SH161967 -27.23 155.30 81 1 -27.10 155.10 954 -27.23 155.30 TC 81 -27.22 155.28 4 82 -26.93 155.14 TC 95 953 14 137
1967 SP EA 1967-01-30 00:00:00 TS -27.31 155.39 203 203 O_____P__OP_O_ jtwc_sh SH161967 -27.40 155.50 80 1 -27.27 155.28 954 -27.40 155.50 TC 80 -27.40 155.49 4 80 -27.10 155.30 TC 95 954 15 135
1967 SP EA 03:00:00 TS -27.86 156.03 237 237 P_____P__PP_P_ SH161967 -27.94 156.15 72 1 -27.81 155.88 956 -27.94 156.15 TC 72 -27.95 156.15 4 72 -27.68 155.91 TC 92 956 16 135
1967 SP EA 06:00:00 TS -28.45 156.70 302 302 O_____P__OP_O_ jtwc_sh SH161967 -28.50 156.80 65 1 -28.41 156.57 958 -28.50 156.80 TC 65 -28.52 156.80 4 65 -28.30 156.60 TC 90 958 17 136
1967 SP EA 08:00:00 TS -28.86 157.13 340 340 P_____P__PO_P_ SH161967 -28.89 157.19 59 0 -28.83 157.03 960 -28.89 157.19 TC 59 -28.90 157.20 2 60 -28.71 157.07 TC 88 959 17 137
1967 SP EA 09:00:00 TS -29.06 157.34 360 360 P_____P__PP_P_ SH161967 -29.09 157.38 57 0 -29.05 157.26 960 -29.09 157.38 TC 57 -29.10 157.39 2 57 -28.92 157.29 TC 87 960 16 140
1967 SP EA 11:00:00 TS -29.47 157.72 962 bom 403 403 P_____O__PP_P_ SH161967 -29.50 157.73 52 0 -29.50 157.70 962 -29.50 157.73 TC 52 -29.51 157.74 2 53 -29.31 157.72 TC 85 961 16 141
1967 SP EA 12:00:00 TS -29.68 157.90 425 425 O_____P__OP_O_ jtwc_sh SH161967 -29.70 157.90 50 0 -29.74 157.92 962 -29.70 157.90 TC 50 -29.71 157.91 2 51 -29.50 157.90 TC 85 962 15 144
1967 SP EA 14:00:00 TS -30.07 158.22 964 bom 464 464 P_____O__PP_P_ SH161967 -30.11 158.24 46 0 -30.20 158.30 964 -30.11 158.24 TC 46 -30.12 158.23 2 47 -29.87 158.20 TC 83 963 14 146
1967 SP EA 15:00:00 TS -30.25 158.36 489 489 P_____P__PP_P_ SH161967 -30.31 158.40 45 0 -30.38 158.43 964 -30.31 158.40 TC 45 -30.33 158.38 2 45 -30.04 158.33 TC 82 964 12 150
1967 SP EA 18:00:00 TS -30.76 158.68 527 527 O_____P__OP_O_ jtwc_sh SH161967 -30.90 158.80 40 0 -30.75 158.63 966 -30.90 158.80 TC 40 -30.92 158.78 2 39 -30.50 158.60 TC 80 966 11 154
1967 SP EA 20:00:00 TS -31.06 158.83 541 541 P_____P__PO_P_ SH161967 -31.29 159.00 38 0 -30.93 158.66 968 -31.29 159.00 TC 38 -31.30 159.00 2 35 -30.74 158.72 TC 78 967 10 158
1967 SP EA 21:00:00 TS -31.21 158.89 551 551 P_____P__PP_P_ SH161967 -31.47 159.09 37 0 -31.01 158.67 968 -31.47 159.09 TC 37 -31.48 159.09 2 35 -30.85 158.76 TC 77 968 9 161
1967 SP EA 23:00:00 TS -31.50 159.00 970 bom 561 561 P_____O__PP_P_ SH161967 -31.83 159.23 35 0 -31.20 158.70 970 -31.83 159.23 TC 35 -31.82 159.25 2 36 -31.07 158.84 TC 75 969 9 161
1967 SP EA 1967-01-31 00:00:00 TS -31.66 159.07 572 572 O_____P__OP_O_ jtwc_sh SH161967 -32.00 159.30 35 0 -31.35 158.78 970 -32.00 159.30 TC 35 -31.99 159.32 2 36 -31.20 158.90 TC 75 970 10 158
1967 SP EA 03:00:00 TS -32.13 159.30 596 596 P_____P__PP_P_ SH161967 -32.46 159.51 37 0 -31.84 159.05 972 -32.46 159.51 TC 37 -32.46 159.49 2 37 -31.67 159.17 TC 72 972 10 157
1967 SP EA 06:00:00 TS -32.61 159.55 635 635 O_____P__OP_O_ jtwc_sh SH161967 -32.90 159.70 40 0 -32.38 159.38 974 -32.90 159.70 TC 40 -32.91 159.66 2 39 -32.20 159.50 TC 70 974 11 156
1967 SP EA 08:00:00 TS -32.95 159.73 652 652 P_____P__PO_P_ SH161967 -33.21 159.81 40 0 -32.75 159.62 976 -33.21 159.81 TC 40 -33.20 159.80 2 40 -32.57 159.72 TC 68 975 11 156
1967 SP EA 09:00:00 TS -33.13 159.82 668 668 P_____P__PP_P_ SH161967 -33.36 159.87 40 0 -32.94 159.75 976 -33.36 159.87 TC 40 -33.36 159.87 2 37 -32.76 159.84 TC 67 976 11 155
1967 SP MM 11:00:00 TS -33.47 160.02 978 bom 698 698 P_____O__PP_P_ SH161967 -33.66 160.01 40 0 -33.30 160.00 978 -33.66 160.01 TC 40 -33.68 160.01 2 33 -33.13 160.08 TC 65 977 11 154
1967 SP MM 12:00:00 TS -33.64 160.12 710 710 O_____P__OP_O_ jtwc_sh SH161967 -33.80 160.10 40 0 -33.47 160.13 978 -33.80 160.10 TC 40 -33.84 160.09 2 31 -33.30 160.20 TC 65 978 11 149
1967 SP MM 15:00:00 TS -34.10 160.47 761 761 P_____P__PP_P_ SH161967 -34.24 160.43 40 0 -33.98 160.50 980 -34.24 160.43 TC 40 -34.27 160.39 2 25 -33.76 160.60 TC 62 980 11 143
1967 SP MM 18:00:00 TS -34.49 160.90 810 810 O_____P__OP_O_ jtwc_sh SH161967 -34.60 160.90 40 0 -34.45 160.87 982 -34.60 160.90 TC 40 -34.62 160.82 2 19 -34.20 161.00 TC 60 982 11 137
1967 SP MM 20:00:00 TS -34.74 161.21 843 843 P_____P__PO_P_ SH161967 -34.79 161.25 38 0 -34.75 161.12 984 -34.79 161.25 TC 38 -34.80 161.20 1 15 -34.58 161.21 TC 58 983 11 131
1967 SP MM 21:00:00 TS -34.85 161.40 867 867 P_____P__PP_P_ SH161967 -34.87 161.45 37 0 -34.90 161.25 984 -34.87 161.45 TC 37 -34.88 161.45 1 -34.77 161.31 TC 57 984 12 118
1967 SP MM 23:00:00 TS -35.02 161.83 986 bom 905 905 P_____O__PP_P_ SH161967 -34.97 161.92 35 0 -35.20 161.50 986 -34.97 161.92 TC 35 -34.99 162.01 1 -35.09 161.55 TC 55 985 12 109
1967 SP MM 1967-02-01 00:00:00 TS -35.06 162.10 935 876 O________OP_O_ jtwc_sh SH161967 -35.00 162.20 35 0 -35.00 162.20 TC 35 -35.02 162.32 1 -35.20 161.70 TC 55 986 15 94
1967 SP MM 03:00:00 TS -35.08 163.01 876 794 P________PP_P_ SH161967 -35.01 163.24 35 0 -35.01 163.24 TC 35 -35.06 163.30 1 -35.24 162.26 TC 55 15 87
1967 SP MM 06:00:00 TS -34.97 163.97 785 740 O________OP_O_ jtwc_sh SH161967 -34.90 164.30 35 0 -34.90 164.30 TC 35 -34.99 164.29 1 -35.10 163.00 TC 55 15 82
1967 SP MM 08:00:00 TS -34.89 164.55 740 712 P________PO_P_ SH161967 -34.81 164.84 35 0 -34.81 164.84 TC 35 -34.90 164.90 4 -35.06 163.62 TC 53 14 78
1967 SP MM 09:00:00 TS -34.83 164.80 712 657 P________PP_P_ SH161967 -34.74 165.07 35 0 -34.74 165.07 TC 35 -34.79 165.09 4 -35.03 163.95 TC 52 12 66
1967 SP MM 12:00:00 TS -34.56 165.46 648 613 O________OP_O_ jtwc_sh SH161967 -34.50 165.70 35 0 -34.50 165.70 TC 35 -34.36 165.55 4 -34.90 164.90 TC 50 12 57
1967 SP MM 15:00:00 TS -34.19 165.98 605 554 P________PP_P_ SH161967 -34.06 166.14 32 -1 -34.06 166.14 TC 32 -33.94 166.02 4 -34.68 165.60 TC 47 12 57
1967 SP MM 18:00:00 TS -33.93 166.63 554 500 O________OP_O_ jtwc_sh SH161967 -33.80 166.80 30 -1 -33.80 166.80 TC 30 -33.74 166.71 4 -34.40 166.20 TC 45 13 75
1967 SP MM 20:00:00 TS -33.90 167.23 500 472 P________PO_P_ SH161967 -33.85 167.53 30 -1 -33.85 167.53 TC 30 -33.80 167.40 4 -34.12 166.44 TC 45 16 91
1967 SP MM 21:00:00 TS -33.95 167.62 463 330 P________PP_P_ SH161967 -33.94 167.99 30 -1 -33.94 167.99 TC 30 -33.93 167.92 4 -33.98 166.58 TC 45 25 105
1967 SP MM 1967-02-02 00:00:00 TS -34.34 169.15 312 139 O________OP_O_ jtwc_sh SH161967 -34.50 169.70 30 -1 -34.50 169.70 TC 30 -34.55 169.81 4 -33.80 167.40 TC 45 33 110
1967 SP MM 03:00:00 TS -35.07 171.35 136 21 P________PP_P_ SH161967 -35.38 172.02 27 -1 -35.38 172.02 TC 27 -35.44 172.00 4 -34.07 169.35 TC 45 41 115
1967 SP MM 06:00:00 TS -36.08 173.68 21 0 O________OP_O_ jtwc_sh SH161967 -36.50 174.40 25 -1 -36.50 174.40 TC 25 -36.52 174.23 4 -34.80 171.70 TC 45 41 121
1967 SP MM 08:00:00 TS -36.83 174.98 11 0 P________PO_P_ SH161967 -37.25 175.62 23 -1 -37.25 175.62 TC 23 -37.30 175.60 4 -35.52 173.08 TC 41 38 128
1967 SP MM 09:00:00 TS -37.24 175.57 0 0 P________PP_P_ SH161967 -37.65 176.16 22 -1 -37.65 176.16 TC 22 -37.70 176.22 4 -35.95 173.74 TC 40 35 134
1967 SP MM 12:00:00 TS -38.46 177.09 0 0 O________OP_O_ jtwc_sh SH161967 -38.90 177.60 20 -1 -38.90 177.60 TC 20 -38.95 177.82 4 -37.30 175.60 TC 35 32 137
1967 SP MM 15:00:00 TS -39.57 178.37 54 54 P________PP_P_ SH161967 -40.19 178.95 17 -1 -40.19 178.95 TC 17 -40.26 179.13 4 -38.42 177.22 TC 35 28 139
1967 SP MM 18:00:00 TS -40.57 179.44 192 192 O________OP_O_ jtwc_sh SH161967 -41.50 -179.70 15 -1 -41.50 180.30 TC 15 -41.60 -179.73 4 -39.60 178.60 TC 35 22 143
1967 SP MM 20:00:00 TS -41.00 179.82 248 248 __________O_P_ SH161967 -1 TC -42.50 -179.00 4 -40.50 179.43 TC 35 10 145
1967 SP MM 21:00:00 TS -40.99 179.82 248 248 ____________P_ SH161967 -1 TC 4 -40.99 179.82 TC 35 26 149
1967 SP MM 1967-02-03 00:00:00 TS -42.50 181.00 427 ____________O_ -1 4 -42.50 -179.00 TC 35 35 150